X  Stänga Metar väderdata för luftfart     LGRX Patras Araxos Agamemnon Airport
Temperatur
28°C Temperatur
16°C Daggpunkt
48% Fuktighet



Vind
3 M/S
6 MPH
10 KM/T
5 KTS



20°
NNÖ
Nuvarande omständigheter

Delvis molnigt Delvis molnigt
Tryck 1010.92 (hPa) - 29.85 (inHg)
Synlighet 6.2 (mil) - 10 (km)
Flygplats
Flygplatskod LGRX

Plats: Patras Araxos Agamemnon Airport
Distans: 16 (km)

Metar:
LGRX 110450Z 02005KT 9999 FEW030 BKN070 28/16 Q1011

Tid: 11-08-2022 07:50 EEST